Morganza, MD (20660)

02:49 PM EDT die 26o March, anno 2017 (GMT -0400)
Mechanicsville | | Change Station

Elev 161 ft 38.44 °N, 76.74 °W | Updated 20 seconds ago

Aequaliter Nubila
Aequaliter Nubila
50.5 °F
Feels Like 50.5 °F
N
4.0
Ventus Variabilis Ventus from Magis Eurus quam Auster

Hodie
High -- | Low -- °F
--% Chance of Precip.
Yesterday
High -- | Low -- °F
Precip. -- in
Pressio 30.30 in
Visibilitas 10.0 milia passuum
Clouds Aequaliter Nubila 800 ft
Frigus in quo Ros apparet 46 °F
Umor 85%
Rainfall 0.00 in
Snow Depth Not available.
7:00 AM 7:24 PM
Waning Crescent, 2% visible
METAR K2W6 261841Z AUTO 06004KT 10SM OVC008 10/07 A3030 RMK AO1
Pressio 30.30 in
Visibilitas 10.0 milia passuum
Clouds Aequaliter Nubila 800 ft
Frigus in quo Ros apparet 46 °F
Umor 85%
Rainfall 0.00 in
Snow Depth Not available.
7:00 AM 7:24 PM
Waning Crescent, 2% visible
METAR K2W6 261841Z AUTO 06004KT 10SM OVC008 10/07 A3030 RMK AO1

Get Severe Weather Alerts

Thanks for signing up!

Be on the lookout for a verification email in your inbox.

You'll start receiving the daily forecast at 8 AM.

×

10-Day Weather Forecast

Almanac

Astronomy

Mar. 26, 2017 Rise Set
Actual Time
Civil Twilight
Nautical Twilight
Astronomical Twilight
Moon
Length Of Visible Light
Length of Day
Tomorrow will be .
, % of the Moon is Illuminated

Today's Extremes

State Highs State Lows

Community

WunderPhotos

Upload Photos

1,962,540 photos uploaded!

WunderBlog® & News

Nearby

Air Quality

  Air Quality AQ Index Pollutant
Not available.

Snow Depth

Station Depth Elevation

Earthquake Activity

City Distance Mag. Time & Date
Minimum magnitude displayed is 2.5.

Earthquake Activity

City Distance Mag. Time & Date
Minimum magnitude displayed is 2.5.

Coastal Water Temperatures

Locus Calor

Stations

Nearby Weather Stations

Station Location Temp Frigus Venti Frigus in quo Ros apparet Umor Ventus Precip. Elev Renovata Type
                   

Watches & Warnings

There are currently no watches in effect.